Time,TemperatureF,DewpointF,PressureIn,WindDirection,WindDirectionDegrees,WindSpeedMPH,WindSpeedGustMPH,Humidity,HourlyPrecipIn,Conditions,Clouds,dailyrainin,SolarRadiationWatts/m^2,SoftwareType,DateUTC
2013-08-04 00:02:00,66.0,51.0,-100.00,SSE,164,5.0,16.0,58,0.00,,,0.09,0.000000,,2013-08-04 06:02:00,
2013-08-04 00:12:00,66.0,51.0,-100.00,SSE,164,5.0,16.0,58,0.00,,,0.09,0.000000,,2013-08-04 06:12:00,
2013-08-04 00:22:00,66.0,51.0,-100.00,SSE,164,5.0,16.0,58,0.00,,,0.09,0.000000,,2013-08-04 06:22:00,
2013-08-04 00:32:00,66.0,51.0,-100.00,SSE,164,5.0,16.0,58,0.00,,,0.09,0.000000,,2013-08-04 06:32:00,
2013-08-04 01:02:00,63.0,51.0,-100.00,NNE,22,3.0,6.0,66,0.00,,,0.01,0.000000,,2013-08-04 07:02:00,
2013-08-04 01:12:00,63.0,51.0,-100.00,NNE,22,3.0,6.0,66,0.00,,,0.01,0.000000,,2013-08-04 07:12:00,
2013-08-04 01:22:00,63.0,51.0,-100.00,NNE,22,3.0,6.0,66,0.00,,,0.01,0.000000,,2013-08-04 07:22:00,
2013-08-04 01:32:00,63.0,51.0,-100.00,NNE,22,3.0,6.0,66,0.00,,,0.01,0.000000,,2013-08-04 07:32:00,
2013-08-04 02:02:00,62.0,54.0,-100.00,NNE,32,3.0,5.0,76,0.00,,,0.00,0.000000,,2013-08-04 08:02:00,
2013-08-04 02:12:00,62.0,54.0,-100.00,NNE,32,3.0,5.0,76,0.00,,,0.00,0.000000,,2013-08-04 08:12:00,
2013-08-04 02:22:00,62.0,54.0,-100.00,NNE,32,3.0,5.0,76,0.00,,,0.00,0.000000,,2013-08-04 08:22:00,
2013-08-04 02:32:00,62.0,54.0,-100.00,NNE,32,3.0,5.0,76,0.00,,,0.00,0.000000,,2013-08-04 08:32:00,
2013-08-04 02:53:00,62.0,54.0,-100.00,East,79,3.0,8.0,75,0.00,,,0.00,0.000000,,2013-08-04 08:53:00,
2013-08-04 03:02:00,62.0,54.0,-100.00,East,79,3.0,8.0,75,0.00,,,0.00,0.000000,,2013-08-04 09:02:00,
2013-08-04 03:12:00,62.0,54.0,-100.00,East,79,3.0,8.0,75,0.00,,,0.00,0.000000,,2013-08-04 09:12:00,
2013-08-04 03:22:00,62.0,54.0,-100.00,East,79,3.0,8.0,75,0.00,,,0.00,0.000000,,2013-08-04 09:22:00,
2013-08-04 03:32:00,62.0,54.0,-100.00,East,79,3.0,8.0,75,0.00,,,0.00,0.000000,,2013-08-04 09:32:00,
2013-08-04 04:02:00,61.0,53.0,-100.00,West,274,2.0,7.0,76,0.00,,,0.00,0.000000,,2013-08-04 10:02:00,
2013-08-04 04:12:00,61.0,53.0,-100.00,West,274,2.0,7.0,76,0.00,,,0.00,0.000000,,2013-08-04 10:12:00,
2013-08-04 04:22:00,61.0,53.0,-100.00,West,274,2.0,7.0,76,0.00,,,0.00,0.000000,,2013-08-04 10:22:00,
2013-08-04 04:32:00,61.0,53.0,-100.00,West,274,2.0,7.0,76,0.00,,,0.00,0.000000,,2013-08-04 10:32:00,
2013-08-04 04:53:00,61.0,55.0,-100.00,South,176,3.0,6.0,80,0.00,,,0.00,0.000000,,2013-08-04 10:53:00,
2013-08-04 05:02:00,61.0,55.0,-100.00,South,176,3.0,6.0,80,0.00,,,0.00,0.000000,,2013-08-04 11:02:00,
2013-08-04 05:12:00,61.0,55.0,-100.00,South,176,3.0,6.0,80,0.00,,,0.00,0.000000,,2013-08-04 11:12:00,
2013-08-04 05:22:00,61.0,55.0,-100.00,South,176,3.0,6.0,80,0.00,,,0.00,0.000000,,2013-08-04 11:22:00,
2013-08-04 05:32:00,61.0,55.0,-100.00,South,176,3.0,6.0,80,0.00,,,0.00,0.000000,,2013-08-04 11:32:00,
2013-08-04 05:53:00,57.0,53.0,-100.00,ENE,76,4.0,6.0,85,0.00,,,0.00,0.000000,,2013-08-04 11:53:00,
2013-08-04 06:02:00,57.0,53.0,-100.00,ENE,76,4.0,6.0,85,0.00,,,0.00,0.000000,,2013-08-04 12:02:00,
2013-08-04 06:12:00,57.0,53.0,-100.00,ENE,76,4.0,6.0,85,0.00,,,0.00,0.000000,,2013-08-04 12:12:00,
2013-08-04 06:22:00,57.0,53.0,-100.00,ENE,76,4.0,6.0,85,0.00,,,0.00,0.000000,,2013-08-04 12:22:00,
2013-08-04 06:32:00,57.0,53.0,-100.00,ENE,76,4.0,6.0,85,0.00,,,0.00,0.000000,,2013-08-04 12:32:00,
2013-08-04 07:02:00,55.0,52.0,-100.00,East,99,4.0,5.0,90,0.00,,,0.00,3.000000,,2013-08-04 13:02:00,
2013-08-04 07:12:00,55.0,52.0,-100.00,East,99,4.0,5.0,90,0.00,,,0.00,3.000000,,2013-08-04 13:12:00,
2013-08-04 07:22:00,55.0,52.0,-100.00,East,99,4.0,5.0,90,0.00,,,0.00,3.000000,,2013-08-04 13:22:00,
2013-08-04 07:32:00,55.0,52.0,-100.00,East,99,4.0,5.0,90,0.00,,,0.00,3.000000,,2013-08-04 13:32:00,
2013-08-04 07:52:00,63.0,57.0,-100.00,WNW,292,1.0,5.0,80,0.00,,,0.00,101.000000,,2013-08-04 13:52:00,
2013-08-04 08:02:00,63.0,57.0,-100.00,WNW,292,1.0,5.0,80,0.00,,,0.00,101.000000,,2013-08-04 14:02:00,
2013-08-04 08:12:00,63.0,57.0,-100.00,WNW,292,1.0,5.0,80,0.00,,,0.00,101.000000,,2013-08-04 14:12:00,
2013-08-04 08:22:00,63.0,57.0,-100.00,WNW,292,1.0,5.0,80,0.00,,,0.00,101.000000,,2013-08-04 14:22:00,
2013-08-04 08:32:00,63.0,57.0,-100.00,WNW,292,1.0,5.0,80,0.00,,,0.00,101.000000,,2013-08-04 14:32:00,
2013-08-04 08:53:00,69.0,56.0,-100.00,NW,310,2.0,4.0,63,0.00,,,0.00,282.000000,,2013-08-04 14:53:00,
2013-08-04 09:02:00,69.0,56.0,-100.00,NW,310,2.0,4.0,63,0.00,,,0.00,282.000000,,2013-08-04 15:02:00,
2013-08-04 09:12:00,69.0,56.0,-100.00,NW,310,2.0,4.0,63,0.00,,,0.00,282.000000,,2013-08-04 15:12:00,
2013-08-04 09:22:00,69.0,56.0,-100.00,NW,310,2.0,4.0,63,0.00,,,0.00,282.000000,,2013-08-04 15:22:00,
2013-08-04 09:32:00,69.0,56.0,-100.00,NW,310,2.0,4.0,63,0.00,,,0.00,282.000000,,2013-08-04 15:32:00,
2013-08-04 09:53:00,73.0,56.0,-100.00,WNW,283,3.0,6.0,55,0.00,,,0.00,472.000000,,2013-08-04 15:53:00,
2013-08-04 10:02:00,73.0,56.0,-100.00,WNW,283,3.0,6.0,55,0.00,,,0.00,472.000000,,2013-08-04 16:02:00,
2013-08-04 10:12:00,73.0,56.0,-100.00,WNW,283,3.0,6.0,55,0.00,,,0.00,472.000000,,2013-08-04 16:12:00,
2013-08-04 10:22:00,73.0,56.0,-100.00,WNW,283,3.0,6.0,55,0.00,,,0.00,472.000000,,2013-08-04 16:22:00,
2013-08-04 10:32:00,73.0,56.0,-100.00,WNW,283,3.0,6.0,55,0.00,,,0.00,472.000000,,2013-08-04 16:32:00,
2013-08-04 10:53:00,77.0,56.0,-100.00,ESE,105,3.0,6.0,49,0.00,,,0.00,647.000000,,2013-08-04 16:53:00,
2013-08-04 11:02:00,77.0,56.0,-100.00,ESE,105,3.0,6.0,49,0.00,,,0.00,647.000000,,2013-08-04 17:02:00,
2013-08-04 11:12:00,77.0,56.0,-100.00,ESE,105,3.0,6.0,49,0.00,,,0.00,647.000000,,2013-08-04 17:12:00,
2013-08-04 11:22:00,77.0,56.0,-100.00,ESE,105,3.0,6.0,49,0.00,,,0.00,647.000000,,2013-08-04 17:22:00,
2013-08-04 11:32:00,77.0,56.0,-100.00,ESE,105,3.0,6.0,49,0.00,,,0.00,647.000000,,2013-08-04 17:32:00,
2013-08-04 11:53:00,80.0,56.0,-100.00,WSW,256,3.0,9.0,44,0.00,,,0.00,787.000000,,2013-08-04 17:53:00,
2013-08-04 12:02:00,80.0,56.0,-100.00,WSW,256,3.0,9.0,44,0.00,,,0.00,787.000000,,2013-08-04 18:02:00,
2013-08-04 12:12:00,80.0,56.0,-100.00,WSW,256,3.0,9.0,44,0.00,,,0.00,787.000000,,2013-08-04 18:12:00,
2013-08-04 12:22:00,80.0,56.0,-100.00,WSW,256,3.0,9.0,44,0.00,,,0.00,787.000000,,2013-08-04 18:22:00,
2013-08-04 12:33:00,80.0,56.0,-100.00,WSW,256,3.0,9.0,44,0.00,,,0.00,787.000000,,2013-08-04 18:33:00,
2013-08-04 12:52:00,82.0,54.0,-100.00,West,268,3.0,9.0,38,0.00,,,0.00,890.000000,,2013-08-04 18:52:00,
2013-08-04 13:02:00,82.0,54.0,-100.00,West,268,3.0,9.0,38,0.00,,,0.00,890.000000,,2013-08-04 19:02:00,
2013-08-04 13:12:00,82.0,54.0,-100.00,West,268,3.0,9.0,38,0.00,,,0.00,890.000000,,2013-08-04 19:12:00,
2013-08-04 13:22:00,82.0,54.0,-100.00,West,268,3.0,9.0,38,0.00,,,0.00,890.000000,,2013-08-04 19:22:00,
2013-08-04 13:33:00,82.0,54.0,-100.00,West,268,3.0,9.0,38,0.00,,,0.00,890.000000,,2013-08-04 19:33:00,
2013-08-04 13:53:00,85.0,53.0,-100.00,North,355,4.0,7.0,34,0.00,,,0.00,800.000000,,2013-08-04 19:53:00,
2013-08-04 14:02:00,85.0,53.0,-100.00,North,355,4.0,7.0,34,0.00,,,0.00,800.000000,,2013-08-04 20:02:00,
2013-08-04 14:12:00,85.0,53.0,-100.00,North,355,4.0,7.0,34,0.00,,,0.00,800.000000,,2013-08-04 20:12:00,
2013-08-04 14:22:00,85.0,53.0,-100.00,North,355,4.0,7.0,34,0.00,,,0.00,800.000000,,2013-08-04 20:22:00,
2013-08-04 14:32:00,85.0,53.0,-100.00,North,355,4.0,7.0,34,0.00,,,0.00,800.000000,,2013-08-04 20:32:00,
2013-08-04 14:53:00,84.0,50.0,-100.00,WNW,300,9.0,16.0,31,0.00,,,0.00,753.000000,,2013-08-04 20:53:00,
2013-08-04 15:02:00,84.0,50.0,-100.00,WNW,300,9.0,16.0,31,0.00,,,0.00,753.000000,,2013-08-04 21:02:00,
2013-08-04 15:12:00,84.0,50.0,-100.00,WNW,300,9.0,16.0,31,0.00,,,0.00,753.000000,,2013-08-04 21:12:00,
2013-08-04 15:22:00,84.0,50.0,-100.00,WNW,300,9.0,16.0,31,0.00,,,0.00,753.000000,,2013-08-04 21:22:00,
2013-08-04 15:32:00,84.0,50.0,-100.00,WNW,300,9.0,16.0,31,0.00,,,0.00,753.000000,,2013-08-04 21:32:00,
2013-08-04 15:53:00,80.0,50.0,-100.00,WNW,282,6.0,15.0,35,0.00,,,0.00,300.000000,,2013-08-04 21:53:00,
2013-08-04 16:02:00,80.0,50.0,-100.00,WNW,282,6.0,15.0,35,0.00,,,0.00,300.000000,,2013-08-04 22:02:00,
2013-08-04 16:12:00,80.0,50.0,-100.00,WNW,282,6.0,15.0,35,0.00,,,0.00,300.000000,,2013-08-04 22:12:00,
2013-08-04 16:22:00,80.0,50.0,-100.00,WNW,282,6.0,15.0,35,0.00,,,0.00,300.000000,,2013-08-04 22:22:00,
2013-08-04 16:32:00,80.0,50.0,-100.00,WNW,282,6.0,15.0,35,0.00,,,0.00,300.000000,,2013-08-04 22:32:00,
2013-08-04 16:53:00,84.0,52.0,-100.00,WSW,240,5.0,11.0,33,0.00,,,0.00,425.000000,,2013-08-04 22:53:00,
2013-08-04 17:02:00,84.0,52.0,-100.00,WSW,240,5.0,11.0,33,0.00,,,0.00,425.000000,,2013-08-04 23:02:00,
2013-08-04 17:12:00,84.0,52.0,-100.00,WSW,240,5.0,11.0,33,0.00,,,0.00,425.000000,,2013-08-04 23:12:00,
2013-08-04 17:22:00,84.0,52.0,-100.00,WSW,240,5.0,11.0,33,0.00,,,0.00,425.000000,,2013-08-04 23:22:00,
2013-08-04 17:32:00,84.0,52.0,-100.00,WSW,240,5.0,11.0,33,0.00,,,0.00,425.000000,,2013-08-04 23:32:00,
2013-08-04 17:53:00,83.0,48.0,-100.00,SW,214,6.0,10.0,30,0.00,,,0.00,524.000000,,2013-08-04 23:53:00,
2013-08-04 18:02:00,83.0,48.0,-100.00,SW,214,6.0,10.0,30,0.00,,,0.00,524.000000,,2013-08-05 00:02:00,
2013-08-04 18:12:00,83.0,48.0,-100.00,SW,214,6.0,10.0,30,0.00,,,0.00,524.000000,,2013-08-05 00:12:00,
2013-08-04 18:22:00,83.0,48.0,-100.00,SW,214,6.0,10.0,30,0.00,,,0.00,524.000000,,2013-08-05 00:22:00,
2013-08-04 18:32:00,83.0,48.0,-100.00,SW,214,6.0,10.0,30,0.00,,,0.00,524.000000,,2013-08-05 00:32:00,
2013-08-04 18:52:00,80.0,42.0,-100.00,NNE,30,3.0,7.0,26,0.00,,,0.00,172.000000,,2013-08-05 00:52:00,
2013-08-04 19:02:00,80.0,42.0,-100.00,NNE,30,3.0,7.0,26,0.00,,,0.00,172.000000,,2013-08-05 01:02:00,
2013-08-04 19:12:00,80.0,42.0,-100.00,NNE,30,3.0,7.0,26,0.00,,,0.00,172.000000,,2013-08-05 01:12:00,
2013-08-04 19:22:00,80.0,42.0,-100.00,NNE,30,3.0,7.0,26,0.00,,,0.00,172.000000,,2013-08-05 01:22:00,
2013-08-04 19:33:00,80.0,42.0,-100.00,NNE,30,3.0,7.0,26,0.00,,,0.00,172.000000,,2013-08-05 01:33:00,
2013-08-04 19:52:00,75.0,47.0,-100.00,East,90,12.0,20.0,37,0.00,,,0.00,70.000000,,2013-08-05 01:52:00,
2013-08-04 20:02:00,75.0,47.0,-100.00,East,90,12.0,20.0,37,0.00,,,0.00,70.000000,,2013-08-05 02:02:00,
2013-08-04 20:12:00,75.0,47.0,-100.00,East,90,12.0,20.0,37,0.00,,,0.00,70.000000,,2013-08-05 02:12:00,
2013-08-04 20:22:00,75.0,47.0,-100.00,East,90,12.0,20.0,37,0.00,,,0.00,70.000000,,2013-08-05 02:22:00,
2013-08-04 20:33:00,75.0,47.0,-100.00,East,90,12.0,20.0,37,0.00,,,0.00,70.000000,,2013-08-05 02:33:00,
2013-08-04 20:53:00,70.0,49.0,-100.00,ENE,74,14.0,20.0,48,0.00,,,0.00,8.000000,,2013-08-05 02:53:00,
2013-08-04 21:02:00,70.0,49.0,-100.00,ENE,74,14.0,20.0,48,0.00,,,0.00,8.000000,,2013-08-05 03:02:00,
2013-08-04 21:12:00,70.0,49.0,-100.00,ENE,74,14.0,20.0,48,0.00,,,0.00,8.000000,,2013-08-05 03:12:00,
2013-08-04 21:22:00,70.0,49.0,-100.00,ENE,74,14.0,20.0,48,0.00,,,0.00,8.000000,,2013-08-05 03:22:00,
2013-08-04 21:32:00,70.0,49.0,-100.00,ENE,74,14.0,20.0,48,0.00,,,0.00,8.000000,,2013-08-05 03:32:00,
2013-08-04 21:53:00,69.0,49.0,-100.00,North,10,2.0,20.0,49,0.00,,,0.00,0.000000,,2013-08-05 03:53:00,
2013-08-04 22:02:00,69.0,49.0,-100.00,North,10,2.0,20.0,49,0.00,,,0.00,0.000000,,2013-08-05 04:02:00,
2013-08-04 22:12:00,69.0,49.0,-100.00,North,10,2.0,20.0,49,0.00,,,0.00,0.000000,,2013-08-05 04:12:00,
2013-08-04 22:22:00,69.0,49.0,-100.00,North,10,2.0,20.0,49,0.00,,,0.00,0.000000,,2013-08-05 04:22:00,
2013-08-04 22:32:00,69.0,49.0,-100.00,North,10,2.0,20.0,49,0.00,,,0.00,0.000000,,2013-08-05 04:32:00,
2013-08-04 22:52:00,68.0,49.0,-100.00,SW,221,2.0,5.0,51,0.00,,,0.00,0.000000,,2013-08-05 04:52:00,
2013-08-04 23:02:00,68.0,49.0,-100.00,SW,221,2.0,5.0,51,0.00,,,0.00,0.000000,,2013-08-05 05:02:00,
2013-08-04 23:12:00,68.0,49.0,-100.00,SW,221,2.0,5.0,51,0.00,,,0.00,0.000000,,2013-08-05 05:12:00,
2013-08-04 23:22:00,68.0,49.0,-100.00,SW,221,2.0,5.0,51,0.00,,,0.00,0.000000,,2013-08-05 05:22:00,
2013-08-04 23:32:00,68.0,49.0,-100.00,SW,221,2.0,5.0,51,0.00,,,0.00,0.000000,,2013-08-05 05:32:00,
2013-08-04 23:53:00,67.0,47.0,-100.00,West,274,5.0,10.0,49,0.00,,,0.00,0.000000,,2013-08-05 05:53:00,